This is the latest recevied weather packets stored in our database for station/object OE-11099. If no packets are shown the sender has not sent any weather packets the latest 10 day(s).
| Time | Temp. | Humidity | Pressure | Rain* | Wind** | Luminosity | Snow |
|---|---|---|---|---|---|---|---|
| 1787802906 | 22.78° C | 48% | 1012.6 hPa | 0 mm | - | 0 W/m² | - |
| 1787802306 | 22.78° C | 49% | 1012.6 hPa | 0 mm | - | 0 W/m² | - |
| 1787801706 | 22.78° C | 48% | 1012.6 hPa | 0 mm | - | 0 W/m² | - |
| 1787801106 | 23.33° C | 46% | 1012.7 hPa | 0 mm | - | 0 W/m² | - |
| 1787800279 | 22.78° C | 48% | 1012.6 hPa | 0 mm | - | 0 W/m² | - |
| 1787799906 | 23.33° C | 47% | 1012.6 hPa | 0 mm | - | 0 W/m² | - |
| 1787799306 | 23.33° C | 46% | 1012.6 hPa | 0 mm | - | 0 W/m² | - |
| 1787798478 | 23.33° C | 46% | 1012.7 hPa | 0 mm | - | 0 W/m² | - |
| 1787798106 | 23.89° C | 43% | 1012.6 hPa | 0 mm | - | 0 W/m² | - |
| 1787797506 | 23.33° C | 47% | 1012.7 hPa | 0 mm | - | 0 W/m² | - |
| 1787796679 | 23.33° C | 46% | 1012.8 hPa | 0 mm | - | 0 W/m² | - |
| 1787796305 | 23.33° C | 46% | 1012.9 hPa | 0 mm | - | 0 W/m² | - |
| 1787795706 | 23.33° C | 47% | 1012.9 hPa | 0 mm | - | 0 W/m² | - |
| 1787794879 | 23.33° C | 48% | 1012.9 hPa | 0 mm | - | 0 W/m² | - |
| 1787794506 | 23.33° C | 48% | 1012.9 hPa | 0 mm | - | 0 W/m² | - |
| 1787793906 | 22.78° C | 49% | 1013 hPa | 0 mm | - | 0 W/m² | - |
| 1787793079 | 22.22° C | 52% | 1013.1 hPa | 0 mm | - | 0 W/m² | - |
| 1787792706 | 21.67° C | 55% | 1013.2 hPa | 0 mm | - | 0 W/m² | - |
| 1787792106 | 21.67° C | 56% | 1013.4 hPa | 0 mm | - | 0 W/m² | - |
| 1787791279 | 21.67° C | 56% | 1013.3 hPa | 0 mm | - | 0 W/m² | - |
| 1787790906 | 22.22° C | 53% | 1013.4 hPa | 0 mm | - | 0 W/m² | - |
| 1787790306 | 21.67° C | 57% | 1013.6 hPa | 0 mm | - | 0 W/m² | - |
| 1787789478 | 20.56° C | 60% | 1013.8 hPa | 0 mm | - | 0 W/m² | - |
| 1787789106 | 21.11° C | 58% | 1014 hPa | 0 mm | - | 0 W/m² | - |
| 1787788506 | 20.56° C | 59% | 1014.1 hPa | 0 mm | - | 0 W/m² | - |
* Rain latest hour (hover to see other rain measurements)
** Current wind speed in m/s (hover to see current wind gust speed)